Time;durP1;ratioP1;P1;durP2;ratioP2;P2;SDS_P1;SDS_P2;PMS_P1;PMS_P2;Temp;Humidity;BMP_temperature;BMP_pressure;BME280_temperature;BME280_humidity;BME280_pressure;Samples;Min_cycle;Max_cycle;Signal;HPM_P1;HPM_P2
2021/12/04 00:01:31;;;;;;;;;39.00;35.50;14.60;99.90;;;;;;5066076;28;11561;-55
2021/12/04 00:04:02;;;;;;;;;42.00;37.25;14.60;99.90;;;;;;5078333;28;11549;-56
2021/12/04 00:06:38;;;;;;;;;38.00;35.00;14.70;99.90;;;;;;5061355;28;12326;-49
2021/12/04 00:09:10;;;;;;;;;34.75;33.00;14.70;99.90;;;;;;5070883;28;11528;-57
2021/12/04 00:11:51;;;;;;;;;37.25;34.25;14.60;99.90;;;;;;5086241;27;11554;-57
2021/12/04 00:14:21;;;;;;;;;32.25;31.25;14.70;99.90;;;;;;5064522;28;11545;-56
2021/12/04 00:16:53;;;;;;;;;32.25;31.50;14.60;99.90;;;;;;5067426;28;11550;-56
2021/12/04 00:19:25;;;;;;;;;34.75;33.00;14.60;99.90;;;;;;5060857;28;11596;-56
2021/12/04 00:21:56;;;;;;;;;35.25;33.25;14.60;99.90;;;;;;5058689;28;11540;-55
2021/12/04 00:24:28;;;;;;;;;33.75;32.50;14.60;99.90;;;;;;5073591;28;11633;-58
2021/12/04 00:26:59;;;;;;;;;38.75;35.75;14.60;99.90;;;;;;5038103;28;11592;-61
2021/12/04 00:29:30;;;;;;;;;33.50;31.50;14.60;99.90;;;;;;5067826;28;11617;-62
2021/12/04 00:32:10;;;;;;;;;38.00;35.25;14.60;99.90;;;;;;5057924;28;11584;-57
2021/12/04 00:34:45;;;;;;;;;36.00;33.75;14.60;99.90;;;;;;5066627;28;11538;-58
2021/12/04 00:51:01;;;;;;;;;39.75;34.75;14.60;99.90;;;;;;5069327;28;11516;-60
2021/12/04 00:53:31;;;;;;;;;40.50;36.25;14.60;99.90;;;;;;5070967;28;11591;-59
2021/12/04 00:56:02;;;;;;;;;33.50;30.75;14.60;99.90;;;;;;5060011;28;11534;-58
2021/12/04 00:58:33;;;;;;;;;36.75;34.25;14.60;99.90;;;;;;5070941;28;11566;-59
2021/12/04 01:01:04;;;;;;;;;38.25;34.25;14.60;99.90;;;;;;5071019;28;12274;-53
2021/12/04 01:03:36;;;;;;;;;40.50;36.50;14.60;99.90;;;;;;5080723;28;11784;-55
2021/12/04 01:06:08;;;;;;;;;37.50;34.50;14.60;99.90;;;;;;5071643;28;11723;-56
2021/12/04 01:08:40;;;;;;;;;44.00;37.00;14.60;99.90;;;;;;5079498;28;11523;-55
2021/12/04 01:11:10;;;;;;;;;40.75;36.75;14.60;99.90;;;;;;5070494;28;11559;-54
2021/12/04 01:13:40;;;;;;;;;38.50;35.25;14.60;99.90;;;;;;5070192;28;11559;-55
2021/12/04 01:16:11;;;;;;;;;42.75;36.25;14.60;99.90;;;;;;5081330;28;11536;-55
2021/12/04 01:18:43;;;;;;;;;37.00;34.25;14.50;99.90;;;;;;5067023;28;11707;-56
2021/12/04 01:21:14;;;;;;;;;37.00;33.75;14.50;99.90;;;;;;5071361;28;11581;-54
2021/12/04 01:23:45;;;;;;;;;41.75;36.50;14.60;99.90;;;;;;5072944;28;11614;-57
2021/12/04 01:26:20;;;;;;;;;40.00;36.25;14.50;99.90;;;;;;5067321;28;11555;-58
2021/12/04 01:28:51;;;;;;;;;38.50;35.25;14.50;99.90;;;;;;5075421;28;11694;-59
2021/12/04 01:31:21;;;;;;;;;42.50;36.00;14.60;99.90;;;;;;5078234;28;12219;-58
2021/12/04 01:33:51;;;;;;;;;45.00;39.00;14.50;99.90;;;;;;5071667;28;11587;-61
2021/12/04 01:36:21;;;;;;;;;35.00;33.25;14.60;99.90;;;;;;5072737;28;11561;-53
2021/12/04 01:38:52;;;;;;;;;44.50;38.25;14.50;99.90;;;;;;5068368;28;13091;-53
2021/12/04 01:41:21;;;;;;;;;39.50;36.25;14.50;99.90;;;;;;5059824;28;11575;-53
2021/12/04 01:43:53;;;;;;;;;39.00;34.00;14.50;99.90;;;;;;5065549;28;11560;-54
2021/12/04 01:46:24;;;;;;;;;42.25;37.00;14.50;99.90;;;;;;5074207;28;11524;-52
2021/12/04 01:48:55;;;;;;;;;39.50;36.00;14.50;99.90;;;;;;5071074;28;11538;-54
2021/12/04 01:51:26;;;;;;;;;45.00;39.25;14.50;99.90;;;;;;5060723;28;11528;-59
2021/12/04 01:53:56;;;;;;;;;45.50;38.50;14.50;99.90;;;;;;5073802;28;12726;-59
2021/12/04 01:56:31;;;;;;;;;44.25;38.50;14.40;99.90;;;;;;5061420;28;11625;-54
2021/12/04 01:59:04;;;;;;;;;47.75;40.50;14.50;99.90;;;;;;5070866;28;11556;-53
2021/12/04 02:01:35;;;;;;;;;45.00;38.25;14.40;99.90;;;;;;5070642;28;11591;-54
2021/12/04 02:04:06;;;;;;;;;42.00;37.00;14.40;99.90;;;;;;5076239;28;11587;-54
2021/12/04 02:06:39;;;;;;;;;43.25;38.00;14.40;99.90;;;;;;5054546;28;11566;-54
2021/12/04 02:09:11;;;;;;;;;46.00;40.00;14.40;99.90;;;;;;5079745;28;12870;-54
2021/12/04 02:11:41;;;;;;;;;39.50;36.00;14.40;99.90;;;;;;5077893;28;11600;-54
2021/12/04 02:14:13;;;;;;;;;45.25;38.75;14.50;99.90;;;;;;5073967;27;12368;-53
2021/12/04 02:16:46;;;;;;;;;44.50;37.50;14.50;99.90;;;;;;5073689;28;11521;-56
2021/12/04 02:19:17;;;;;;;;;45.00;39.00;14.40;99.90;;;;;;5076906;28;11574;-56
2021/12/04 02:21:49;;;;;;;;;47.00;39.50;14.40;99.90;;;;;;5073436;27;11605;-54
2021/12/04 02:24:19;;;;;;;;;43.50;38.00;14.40;99.90;;;;;;5081952;27;11626;-56
2021/12/04 02:26:51;;;;;;;;;47.50;39.75;14.40;99.90;;;;;;5063909;27;11591;-55
2021/12/04 02:29:22;;;;;;;;;48.25;40.50;14.40;99.90;;;;;;5070860;28;11768;-55
2021/12/04 02:31:55;;;;;;;;;43.25;37.00;14.40;99.90;;;;;;5074021;28;11758;-55
2021/12/04 02:34:28;;;;;;;;;41.25;37.00;14.40;99.90;;;;;;5072918;28;11547;-54
2021/12/04 02:37:00;;;;;;;;;48.25;40.75;14.40;99.90;;;;;;5072855;28;11726;-54
2021/12/04 02:39:35;;;;;;;;;42.25;37.25;14.30;99.90;;;;;;5075107;28;11525;-54
2021/12/04 02:42:18;;;;;;;;;48.00;39.50;14.40;99.90;;;;;;5072244;28;11541;-53
2021/12/04 02:44:49;;;;;;;;;48.25;41.25;14.40;99.90;;;;;;5075072;28;11614;-53
2021/12/04 02:47:20;;;;;;;;;44.75;39.00;14.40;99.90;;;;;;5077205;28;11991;-55
2021/12/04 02:49:52;;;;;;;;;46.50;38.25;14.40;99.90;;;;;;5066538;28;11617;-54
2021/12/04 02:52:25;;;;;;;;;38.50;35.50;14.40;99.90;;;;;;5081029;27;11560;-52
2021/12/04 02:54:57;;;;;;;;;45.00;37.75;14.40;99.90;;;;;;5061953;28;11053;-51
2021/12/04 02:57:28;;;;;;;;;47.00;39.75;14.40;99.90;;;;;;5053326;28;11560;-54
2021/12/04 02:59:59;;;;;;;;;40.00;35.75;14.40;99.90;;;;;;5068018;28;12313;-54
2021/12/04 03:02:29;;;;;;;;;43.25;37.75;14.30;99.90;;;;;;5068527;28;11656;-54
2021/12/04 03:05:06;;;;;;;;;46.00;38.75;14.30;99.90;;;;;;5061357;28;11578;-55
2021/12/04 03:07:38;;;;;;;;;40.00;36.25;14.30;99.90;;;;;;5076541;28;11529;-55
2021/12/04 03:10:09;;;;;;;;;43.75;37.00;14.30;99.90;;;;;;5070327;28;11596;-55
2021/12/04 03:12:41;;;;;;;;;43.00;37.75;14.30;99.90;;;;;;5069681;28;11492;-54
2021/12/04 03:15:11;;;;;;;;;40.50;36.25;14.30;99.90;;;;;;5077536;28;12538;-54
2021/12/04 03:17:41;;;;;;;;;37.00;33.25;14.30;99.90;;;;;;5071155;28;11585;-54
2021/12/04 03:20:12;;;;;;;;;44.50;38.75;14.30;99.90;;;;;;5078081;28;11506;-55
2021/12/04 03:22:45;;;;;;;;;45.50;38.50;14.30;99.90;;;;;;5065509;27;11673;-54
2021/12/04 03:25:19;;;;;;;;;46.00;40.00;14.30;99.90;;;;;;5075198;28;11535;-56
2021/12/04 03:27:51;;;;;;;;;40.50;36.50;14.30;99.90;;;;;;5062481;28;11711;-54
2021/12/04 03:30:40;;;;;;;;;44.50;38.75;14.20;99.90;;;;;;5066696;28;11581;-54
2021/12/04 03:41:22;;;;;;;;;39.75;35.75;14.30;99.90;;;;;;5076015;28;11540;-53
2021/12/04 03:43:52;;;;;;;;;46.75;40.50;14.30;99.90;;;;;;5072183;28;11558;-53
2021/12/04 03:46:25;;;;;;;;;44.00;38.50;14.30;99.90;;;;;;5074649;28;11579;-54
2021/12/04 03:48:57;;;;;;;;;49.00;41.25;14.20;99.90;;;;;;5079229;28;12754;-54
2021/12/04 03:51:27;;;;;;;;;48.75;42.00;14.20;99.90;;;;;;5079374;28;11573;-54
2021/12/04 03:53:56;;;;;;;;;45.25;38.00;14.20;99.90;;;;;;5080571;28;11547;-54
2021/12/04 03:56:29;;;;;;;;;48.25;41.00;14.30;99.90;;;;;;5073018;28;11596;-52
2021/12/04 03:59:00;;;;;;;;;45.25;39.00;14.30;99.90;;;;;;5080716;28;11682;-54
2021/12/04 04:01:30;;;;;;;;;48.50;41.00;14.30;99.90;;;;;;5060027;28;11575;-53
2021/12/04 04:04:02;;;;;;;;;46.00;39.25;14.20;99.90;;;;;;5056592;28;11691;-53
2021/12/04 04:06:33;;;;;;;;;36.25;33.50;14.20;99.90;;;;;;5065861;28;11567;-51
2021/12/04 04:09:04;;;;;;;;;48.25;41.00;14.20;99.90;;;;;;5071473;28;11564;-53
2021/12/04 04:11:36;;;;;;;;;43.75;38.00;14.20;99.90;;;;;;5075024;27;11684;-54
2021/12/04 04:14:06;;;;;;;;;45.75;38.50;14.20;99.90;;;;;;5076696;28;11513;-54
2021/12/04 04:16:39;;;;;;;;;43.75;37.00;14.30;99.90;;;;;;5080778;28;11574;-53
2021/12/04 04:19:11;;;;;;;;;43.25;38.25;14.30;99.90;;;;;;5069793;28;11572;-54
2021/12/04 04:21:43;;;;;;;;;35.25;33.25;14.30;99.90;;;;;;5067447;28;11567;-54
2021/12/04 04:24:18;;;;;;;;;47.00;40.25;14.30;99.90;;;;;;5071105;28;11578;-53
2021/12/04 04:26:49;;;;;;;;;33.50;31.50;14.30;99.90;;;;;;5072642;28;11713;-54
2021/12/04 04:29:20;;;;;;;;;46.25;38.75;14.30;99.90;;;;;;5072676;28;11600;-54
2021/12/04 04:31:54;;;;;;;;;39.25;35.50;14.30;99.90;;;;;;5061650;28;11562;-54
2021/12/04 04:34:30;;;;;;;;;47.50;40.25;14.30;99.90;;;;;;5069868;28;11546;-54
2021/12/04 04:37:14;;;;;;;;;45.75;39.50;14.30;99.90;;;;;;5058381;28;11521;-53
2021/12/04 04:59:56;;;;;;;;;39.50;35.50;14.30;99.90;;;;;;5067977;28;11718;-55
2021/12/04 05:10:13;;;;;;;;;39.25;35.75;14.30;99.90;;;;;;5072516;28;11709;-55
2021/12/04 05:11:36;;;;;;;;;48.25;41.00;14.30;99.90;;;;;;5024836;28;11579;-55
2021/12/04 05:14:09;;;;;;;;;50.50;43.50;14.30;99.90;;;;;;5038651;28;11557;-53
2021/12/04 05:16:49;;;;;;;;;46.75;40.50;14.30;99.90;;;;;;5070186;28;11565;-54
2021/12/04 05:19:28;;;;;;;;;49.00;42.00;14.30;99.90;;;;;;5066731;28;11530;-53
2021/12/04 05:21:57;;;;;;;;;48.25;40.50;14.30;99.90;;;;;;5074037;28;11563;-54
2021/12/04 05:24:28;;;;;;;;;40.00;36.00;14.30;99.90;;;;;;5058125;28;13699;-54
2021/12/04 05:26:57;;;;;;;;;46.75;38.25;14.30;99.90;;;;;;5071641;28;11563;-54
2021/12/04 05:29:28;;;;;;;;;51.75;44.50;14.30;99.90;;;;;;5068267;28;12364;-54
2021/12/04 05:31:58;;;;;;;;;49.00;41.75;14.30;99.90;;;;;;5076092;28;11708;-54
2021/12/04 05:34:29;;;;;;;;;45.75;39.25;14.20;99.90;;;;;;5067817;28;11557;-54
2021/12/04 05:37:00;;;;;;;;;45.50;39.50;14.20;99.90;;;;;;5072395;28;11516;-54
2021/12/04 05:39:30;;;;;;;;;49.00;41.00;14.20;99.90;;;;;;5078443;28;11547;-53
2021/12/04 05:42:01;;;;;;;;;49.75;42.50;14.20;99.90;;;;;;5072900;28;11558;-51
2021/12/04 05:44:33;;;;;;;;;39.00;35.50;14.20;99.90;;;;;;5060789;28;11576;-54
2021/12/04 05:47:13;;;;;;;;;43.50;38.50;14.20;99.90;;;;;;5074044;28;11590;-55
2021/12/04 05:54:56;;;;;;;;;46.00;38.50;14.20;99.90;;;;;;5061501;28;11564;-54
2021/12/04 05:57:26;;;;;;;;;48.25;41.00;14.20;99.90;;;;;;5072902;28;11727;-53
2021/12/04 05:59:57;;;;;;;;;51.25;43.75;14.20;99.90;;;;;;5065521;28;11553;-55
2021/12/04 06:02:28;;;;;;;;;48.50;42.00;14.30;99.90;;;;;;5083324;28;11543;-54
2021/12/04 06:04:58;;;;;;;;;44.00;38.25;14.30;99.90;;;;;;5062562;28;11577;-56
2021/12/04 06:07:28;;;;;;;;;45.00;40.00;14.30;99.90;;;;;;5076100;28;11568;-52
2021/12/04 06:09:58;;;;;;;;;46.75;40.00;14.30;99.90;;;;;;5071960;27;12414;-52
2021/12/04 06:12:29;;;;;;;;;46.75;39.50;14.20;99.90;;;;;;5079953;28;11615;-54
2021/12/04 06:15:01;;;;;;;;;44.50;39.00;14.30;99.90;;;;;;5079607;27;11571;-54
2021/12/04 06:17:31;;;;;;;;;46.50;40.00;14.30;99.90;;;;;;5078623;28;11556;-54
2021/12/04 06:22:50;;;;;;;;;48.50;41.00;14.30;99.90;;;;;;5080885;28;11573;-54
2021/12/04 06:25:24;;;;;;;;;46.00;38.75;14.30;99.90;;;;;;5038812;28;11556;-54
2021/12/04 06:27:55;;;;;;;;;44.25;37.75;14.30;99.90;;;;;;5076582;28;11551;-54
2021/12/04 06:30:27;;;;;;;;;34.00;32.75;14.30;99.90;;;;;;5075714;28;11526;-55
2021/12/04 06:32:57;;;;;;;;;39.50;35.50;14.30;99.90;;;;;;5077094;28;11512;-55
2021/12/04 06:35:27;;;;;;;;;48.00;41.00;14.30;99.90;;;;;;5074453;28;11571;-55
2021/12/04 06:38:00;;;;;;;;;48.75;40.00;14.30;99.90;;;;;;5077752;28;11564;-53
2021/12/04 06:40:36;;;;;;;;;48.25;41.25;14.30;99.90;;;;;;5077878;27;11710;-54
2021/12/04 06:43:09;;;;;;;;;45.25;38.75;14.30;99.90;;;;;;5061415;28;11568;-55
2021/12/04 06:45:44;;;;;;;;;48.50;41.75;14.30;99.90;;;;;;5073277;28;11576;-55
2021/12/04 06:48:26;;;;;;;;;48.75;41.50;14.30;99.90;;;;;;5081864;28;11527;-54
2021/12/04 06:51:05;;;;;;;;;48.25;40.00;14.30;99.90;;;;;;5076511;28;11529;-54
2021/12/04 06:53:43;;;;;;;;;42.75;37.50;14.30;99.90;;;;;;5082897;28;11560;-56
2021/12/04 06:56:16;;;;;;;;;46.50;40.00;14.30;99.90;;;;;;5062826;28;11556;-54
2021/12/04 06:58:48;;;;;;;;;42.00;37.25;14.30;99.90;;;;;;5069179;28;11513;-54
2021/12/04 07:01:18;;;;;;;;;47.75;41.50;14.20;99.90;;;;;;5076405;27;11526;-55
2021/12/04 07:03:49;;;;;;;;;42.00;37.00;14.20;99.90;;;;;;5082877;28;11643;-53
2021/12/04 07:06:21;;;;;;;;;47.00;40.00;14.20;99.90;;;;;;5075539;28;12472;-54
2021/12/04 07:08:51;;;;;;;;;46.25;38.50;14.30;99.90;;;;;;5082717;28;11548;-53
2021/12/04 07:11:20;;;;;;;;;43.00;37.00;14.30;99.90;;;;;;5076367;28;11543;-53
2021/12/04 07:13:50;;;;;;;;;42.25;36.50;14.30;99.90;;;;;;5076593;28;11598;-55
2021/12/04 07:16:25;;;;;;;;;39.25;35.75;14.30;99.90;;;;;;5075838;28;11541;-53
2021/12/04 07:18:55;;;;;;;;;34.25;32.75;14.20;99.90;;;;;;5081639;28;11568;-53
2021/12/04 07:21:26;;;;;;;;;35.50;32.75;14.20;99.90;;;;;;5067025;28;11601;-53
2021/12/04 07:23:56;;;;;;;;;32.25;31.25;14.30;99.90;;;;;;5076633;28;11563;-53
2021/12/04 07:26:26;;;;;;;;;38.25;35.00;14.20;99.90;;;;;;5075434;28;11564;-54
2021/12/04 07:28:56;;;;;;;;;34.50;33.00;14.30;99.90;;;;;;5078492;28;11561;-55
2021/12/04 07:31:29;;;;;;;;;39.00;35.50;14.30;99.90;;;;;;5071465;28;12310;-52
2021/12/04 07:34:01;;;;;;;;;36.00;33.25;14.30;99.90;;;;;;5076961;28;11710;-54
2021/12/04 07:36:31;;;;;;;;;34.50;33.00;14.20;99.90;;;;;;5076016;28;11564;-55
2021/12/04 07:39:05;;;;;;;;;41.50;36.50;14.30;99.90;;;;;;5075008;28;11667;-54
2021/12/04 07:41:38;;;;;;;;;33.50;32.50;14.20;99.90;;;;;;5072051;28;11758;-55
2021/12/04 07:44:10;;;;;;;;;39.75;35.00;14.20;99.90;;;;;;5070257;28;11584;-54
2021/12/04 07:46:42;;;;;;;;;40.25;36.00;14.20;99.90;;;;;;5075227;28;11563;-54
2021/12/04 07:49:13;;;;;;;;;34.00;32.50;14.20;99.90;;;;;;5060487;28;11639;-55
2021/12/04 07:51:44;;;;;;;;;39.25;35.50;14.20;99.90;;;;;;5080027;28;11579;-54
2021/12/04 07:54:14;;;;;;;;;31.00;29.75;14.20;99.90;;;;;;5078033;28;11686;-52
2021/12/04 07:56:46;;;;;;;;;39.50;35.75;14.20;99.90;;;;;;5072010;28;11558;-53
2021/12/04 07:59:17;;;;;;;;;38.00;33.75;14.20;99.90;;;;;;5057792;28;12303;-55
2021/12/04 08:01:47;;;;;;;;;36.75;34.25;14.20;99.90;;;;;;5069622;28;11607;-55
2021/12/04 08:04:18;;;;;;;;;44.00;37.00;14.20;99.90;;;;;;5071454;28;11538;-55
2021/12/04 08:06:48;;;;;;;;;40.75;36.50;14.20;99.90;;;;;;5081638;27;11557;-55
2021/12/04 08:09:19;;;;;;;;;45.25;39.00;14.20;99.90;;;;;;5070770;28;11631;-54
2021/12/04 08:11:50;;;;;;;;;38.00;35.00;14.20;99.90;;;;;;5072575;28;11512;-54
2021/12/04 08:14:21;;;;;;;;;45.25;39.00;14.20;99.90;;;;;;5072913;28;11643;-55
2021/12/04 08:16:51;;;;;;;;;44.00;37.00;14.20;99.90;;;;;;5075991;27;11542;-55
2021/12/04 08:19:21;;;;;;;;;38.75;35.50;14.20;99.90;;;;;;5076313;28;11610;-54
2021/12/04 08:21:53;;;;;;;;;37.25;34.75;14.20;99.90;;;;;;5066641;28;11552;-54
2021/12/04 08:24:24;;;;;;;;;42.75;36.75;14.20;99.90;;;;;;5074847;28;11582;-53
2021/12/04 08:26:54;;;;;;;;;41.50;37.00;14.10;99.90;;;;;;5074770;28;12385;-54
2021/12/04 08:29:24;;;;;;;;;35.75;33.00;14.10;99.90;;;;;;5080720;28;11663;-55
2021/12/04 08:31:56;;;;;;;;;37.50;33.75;14.10;99.90;;;;;;5077920;28;11559;-53
2021/12/04 08:34:27;;;;;;;;;33.75;32.50;14.20;99.90;;;;;;5065009;28;11564;-55
2021/12/04 08:36:58;;;;;;;;;36.75;34.00;14.10;99.90;;;;;;5075059;28;11595;-55
2021/12/04 08:39:29;;;;;;;;;41.25;35.75;14.10;99.90;;;;;;5079270;28;11533;-55
2021/12/04 08:42:01;;;;;;;;;37.75;34.75;14.20;99.90;;;;;;5063359;28;11579;-55
2021/12/04 08:44:33;;;;;;;;;37.00;34.00;14.20;99.90;;;;;;5079497;28;12261;-56
2021/12/04 08:47:04;;;;;;;;;38.25;35.00;14.20;99.90;;;;;;5078867;28;11589;-54
2021/12/04 08:49:34;;;;;;;;;30.75;30.25;14.10;99.90;;;;;;5073861;28;11702;-55
2021/12/04 08:52:05;;;;;;;;;35.25;32.75;14.10;99.90;;;;;;5080210;28;11573;-55
2021/12/04 08:54:37;;;;;;;;;30.00;28.00;14.10;99.90;;;;;;5070114;28;11546;-55
2021/12/04 08:57:07;;;;;;;;;30.50;30.50;14.10;99.90;;;;;;5074156;28;11522;-55
2021/12/04 08:59:37;;;;;;;;;32.50;31.00;14.10;99.90;;;;;;5057844;28;11533;-55
2021/12/04 09:02:09;;;;;;;;;38.75;35.75;14.10;99.90;;;;;;5070377;28;11539;-56
2021/12/04 09:04:41;;;;;;;;;35.25;32.25;14.10;99.90;;;;;;5073528;28;11552;-55
2021/12/04 09:07:10;;;;;;;;;35.75;33.75;14.10;99.90;;;;;;5074906;28;11552;-55
2021/12/04 09:09:42;;;;;;;;;33.50;31.50;14.10;99.90;;;;;;5069281;28;11632;-51
2021/12/04 09:12:25;;;;;;;;;33.75;32.75;14.10;99.90;;;;;;5050676;28;11581;-54
2021/12/04 09:14:57;;;;;;;;;32.00;31.25;14.10;99.90;;;;;;5073283;28;12606;-54
2021/12/04 09:17:28;;;;;;;;;33.75;32.25;14.10;99.90;;;;;;5073808;28;12135;-54
2021/12/04 09:19:59;;;;;;;;;31.25;30.75;14.10;99.90;;;;;;5070728;28;11589;-55
2021/12/04 09:22:34;;;;;;;;;28.25;28.25;14.10;99.90;;;;;;5078379;28;11542;-54
2021/12/04 09:25:14;;;;;;;;;31.50;31.00;14.10;99.90;;;;;;5077036;27;12383;-55
2021/12/04 10:32:40;;;;;;;;;25.25;22.25;14.10;99.90;;;;;;5074467;28;11569;-54
2021/12/04 10:35:22;;;;;;;;;19.75;19.75;14.10;99.90;;;;;;5078017;28;11541;-57
2021/12/04 10:38:05;;;;;;;;;22.25;22.25;14.10;99.90;;;;;;5068506;28;11516;-55
2021/12/04 10:40:44;;;;;;;;;21.00;21.00;14.10;99.90;;;;;;5076533;28;11473;-56
2021/12/04 10:43:27;;;;;;;;;22.25;22.25;14.10;99.90;;;;;;5081537;28;11738;-55
2021/12/04 10:46:14;;;;;;;;;29.50;26.75;14.10;99.90;;;;;;5077181;28;11609;-54
2021/12/04 10:48:54;;;;;;;;;23.00;21.75;14.00;99.90;;;;;;5079694;28;11490;-55
2021/12/04 10:51:36;;;;;;;;;23.00;23.00;14.10;99.90;;;;;;5077503;28;11568;-54
2021/12/04 10:54:29;;;;;;;;;24.75;24.75;14.10;99.90;;;;;;5081251;27;11622;-53
2021/12/04 11:00:08;;;;;;;;;22.00;22.00;14.10;99.90;;;;;;5076021;28;11465;-55
2021/12/04 11:02:45;;;;;;;;;23.00;23.00;14.10;99.90;;;;;;5061103;28;11556;-55
2021/12/04 11:22:51;;;;;;;;;23.25;20.50;14.10;99.90;;;;;;5048972;28;12373;-56
2021/12/04 11:28:22;;;;;;;;;20.75;20.75;14.10;99.90;;;;;;5040250;28;11573;-56
2021/12/04 11:36:59;;;;;;;;;15.00;15.00;14.10;99.90;;;;;;5042494;28;11515;-55
2021/12/04 11:42:11;;;;;;;;;21.00;20.00;14.10;99.90;;;;;;5043619;28;12757;-55
2021/12/04 11:44:49;;;;;;;;;24.00;21.75;14.10;99.90;;;;;;5039191;28;11563;-55
2021/12/04 11:47:19;;;;;;;;;21.75;20.00;14.10;99.90;;;;;;5039498;28;12354;-54
2021/12/04 11:49:50;;;;;;;;;19.25;19.25;14.10;99.90;;;;;;5032309;28;11614;-53
2021/12/04 11:52:21;;;;;;;;;20.50;20.50;14.10;99.90;;;;;;5047486;28;11630;-54
2021/12/04 11:54:58;;;;;;;;;20.00;20.00;14.10;99.90;;;;;;5043867;28;11547;-54
2021/12/04 11:57:34;;;;;;;;;20.00;20.00;14.10;99.90;;;;;;5049900;28;11564;-54
2021/12/04 12:00:29;;;;;;;;;18.75;18.75;14.10;99.90;;;;;;5046118;28;11446;-53
2021/12/04 12:03:13;;;;;;;;;19.50;17.75;14.10;99.90;;;;;;5044716;28;11695;-54
2021/12/04 12:05:53;;;;;;;;;20.00;19.25;14.10;99.90;;;;;;5044500;28;11589;-54
2021/12/04 12:08:37;;;;;;;;;20.25;20.25;14.10;99.90;;;;;;5035620;28;11545;-54
2021/12/04 12:11:14;;;;;;;;;17.75;17.25;14.10;99.90;;;;;;5043378;28;11584;-54
2021/12/04 12:13:53;;;;;;;;;18.00;18.00;14.10;99.90;;;;;;5039569;28;11583;-54
2021/12/04 12:16:33;;;;;;;;;24.50;24.50;14.10;99.90;;;;;;5037029;28;12221;-54
2021/12/04 12:19:22;;;;;;;;;21.00;21.00;14.00;99.90;;;;;;5052589;28;11688;-53
2021/12/04 12:22:05;;;;;;;;;15.50;15.50;14.00;99.90;;;;;;5050932;28;11597;-54
2021/12/04 12:33:29;;;;;;;;;18.00;18.00;14.00;99.90;;;;;;5063504;28;11487;-53
2021/12/04 12:36:17;;;;;;;;;19.50;19.50;14.00;99.90;;;;;;5059321;28;11581;-53
2021/12/04 12:39:00;;;;;;;;;19.25;17.25;14.10;99.90;;;;;;5066409;28;11554;-54
2021/12/04 12:41:32;;;;;;;;;23.25;23.25;14.10;99.90;;;;;;5060746;28;11658;-55
2021/12/04 12:44:09;;;;;;;;;19.25;19.25;14.10;99.90;;;;;;5057463;28;11530;-55
2021/12/04 12:46:43;;;;;;;;;15.50;15.50;14.10;99.90;;;;;;5062979;28;11658;-56
2021/12/04 12:49:36;;;;;;;;;17.75;17.75;14.10;99.90;;;;;;5047169;28;11678;-56
2021/12/04 12:52:08;;;;;;;;;23.50;23.00;14.10;99.90;;;;;;5056613;28;12281;-55
2021/12/04 12:54:57;;;;;;;;;22.00;21.50;14.10;99.90;;;;;;5059354;28;11581;-56
2021/12/04 12:57:40;;;;;;;;;17.50;17.50;14.00;99.90;;;;;;5060970;28;11682;-55
2021/12/04 13:14:12;;;;;;;;;22.25;22.25;14.00;99.90;;;;;;5065805;28;11555;-54
2021/12/04 13:16:50;;;;;;;;;20.25;20.25;14.00;99.90;;;;;;5063806;28;11555;-54
2021/12/04 13:19:23;;;;;;;;;22.75;22.75;14.00;99.90;;;;;;5059011;28;11610;-54
2021/12/04 13:21:58;;;;;;;;;14.50;14.50;14.00;99.90;;;;;;5071881;28;11527;-55
2021/12/04 13:24:34;;;;;;;;;17.00;17.00;14.00;99.90;;;;;;5063019;28;11436;-55
2021/12/04 13:29:54;;;;;;;;;22.00;20.50;14.10;99.90;;;;;;5057518;28;11594;-53
2021/12/04 13:32:32;;;;;;;;;24.25;24.25;14.00;99.90;;;;;;5059849;28;12445;-52
2021/12/04 13:35:09;;;;;;;;;22.00;22.00;14.00;99.90;;;;;;5051873;28;11736;-53
2021/12/04 13:37:40;;;;;;;;;21.75;21.75;14.00;99.90;;;;;;5063835;28;11582;-56
2021/12/04 13:40:16;;;;;;;;;23.50;23.50;14.00;99.90;;;;;;5065111;28;11610;-54
2021/12/04 13:42:47;;;;;;;;;18.75;18.75;14.00;99.90;;;;;;5062821;28;11503;-55
2021/12/04 13:45:20;;;;;;;;;21.25;21.25;14.00;99.90;;;;;;5067559;28;11541;-55
2021/12/04 13:47:53;;;;;;;;;17.00;17.00;14.00;99.90;;;;;;5064474;28;11536;-55
2021/12/04 13:53:25;;;;;;;;;23.25;23.25;14.00;99.90;;;;;;5039504;28;11668;-56
2021/12/04 13:56:22;;;;;;;;;22.50;21.50;14.00;99.90;;;;;;5061648;28;11580;-55
2021/12/04 13:58:57;;;;;;;;;22.75;22.25;14.00;99.90;;;;;;5061904;28;11542;-56
2021/12/04 14:01:41;;;;;;;;;22.00;22.00;14.00;99.90;;;;;;5060383;28;11572;-53
2021/12/04 14:04:16;;;;;;;;;17.25;17.25;14.00;99.90;;;;;;5065782;28;11574;-53
2021/12/04 14:06:56;;;;;;;;;19.00;17.00;14.00;99.90;;;;;;5067302;28;11583;-54
2021/12/04 14:09:38;;;;;;;;;20.75;20.75;14.00;99.90;;;;;;5064082;28;11571;-53
2021/12/04 14:12:10;;;;;;;;;20.75;20.75;14.00;99.90;;;;;;5070304;28;12152;-54
2021/12/04 14:14:40;;;;;;;;;20.75;20.75;14.00;99.90;;;;;;5065490;28;11550;-54
2021/12/04 14:17:19;;;;;;;;;18.25;16.75;14.00;99.90;;;;;;5065655;28;11534;-54
2021/12/04 14:19:50;;;;;;;;;19.25;19.25;13.90;99.90;;;;;;5062452;28;11592;-55
2021/12/04 14:22:22;;;;;;;;;19.50;19.50;13.90;99.90;;;;;;5060784;28;12265;-54
2021/12/04 14:24:59;;;;;;;;;17.50;17.50;13.90;99.90;;;;;;5060954;28;11533;-53
2021/12/04 14:27:35;;;;;;;;;22.75;22.75;13.90;99.90;;;;;;5065875;28;12272;-53
2021/12/04 14:30:16;;;;;;;;;19.75;17.75;14.00;99.90;;;;;;5065267;28;11524;-53
2021/12/04 14:32:52;;;;;;;;;20.25;20.25;14.00;99.90;;;;;;5067901;28;11706;-53
2021/12/04 14:35:31;;;;;;;;;20.50;20.50;14.00;99.90;;;;;;5061159;28;11604;-54
2021/12/04 14:38:08;;;;;;;;;20.00;20.00;14.00;99.90;;;;;;5065383;28;11578;-54
2021/12/04 14:40:43;;;;;;;;;17.50;15.50;13.90;99.90;;;;;;5062591;28;12312;-55
2021/12/04 14:43:17;;;;;;;;;15.75;15.75;13.90;99.90;;;;;;5059031;28;11533;-54
2021/12/04 14:45:51;;;;;;;;;21.50;21.50;13.90;99.90;;;;;;5062119;28;11606;-54
2021/12/04 14:48:26;;;;;;;;;23.00;21.25;13.90;99.90;;;;;;5064835;28;11552;-55
2021/12/04 14:51:06;;;;;;;;;16.50;16.50;13.90;99.90;;;;;;5060903;28;11545;-54
2021/12/04 14:53:43;;;;;;;;;24.25;24.25;13.90;99.90;;;;;;5066787;28;12105;-54
2021/12/04 14:56:15;;;;;;;;;21.25;21.25;13.90;99.90;;;;;;5055663;28;11657;-54
2021/12/04 14:58:46;;;;;;;;;21.50;21.50;13.90;99.90;;;;;;5064225;28;11583;-52
2021/12/04 15:01:18;;;;;;;;;14.75;14.75;13.90;99.90;;;;;;5062176;28;12348;-52
2021/12/04 15:03:59;;;;;;;;;15.00;15.00;13.90;99.90;;;;;;5065796;28;11533;-52
2021/12/04 15:06:34;;;;;;;;;19.00;19.00;13.90;99.90;;;;;;5064828;28;11551;-54
2021/12/04 15:09:15;;;;;;;;;16.25;16.25;13.90;99.90;;;;;;5062910;28;11689;-55
2021/12/04 15:11:49;;;;;;;;;15.25;15.25;13.90;99.90;;;;;;5045266;28;11676;-53
2021/12/04 15:14:34;;;;;;;;;16.25;15.25;13.90;99.90;;;;;;5062857;28;11593;-53
2021/12/04 15:17:14;;;;;;;;;18.00;18.00;13.90;99.90;;;;;;5061033;28;11606;-55
2021/12/04 15:19:47;;;;;;;;;18.25;18.25;13.90;99.90;;;;;;5053245;28;12462;-55
2021/12/04 15:22:35;;;;;;;;;17.75;17.75;13.90;99.90;;;;;;5058084;28;11515;-54
2021/12/04 15:25:11;;;;;;;;;21.00;21.00;13.90;99.90;;;;;;5056863;28;11564;-55
2021/12/04 15:27:42;;;;;;;;;22.75;22.75;13.90;99.90;;;;;;5060726;28;11596;-55
2021/12/04 15:30:17;;;;;;;;;16.75;16.75;13.90;99.90;;;;;;5056549;28;12837;-54
2021/12/04 15:32:51;;;;;;;;;19.25;16.75;13.90;99.90;;;;;;5064658;28;11528;-56
2021/12/04 15:35:39;;;;;;;;;21.25;21.25;13.90;99.90;;;;;;5057988;28;11574;-56
2021/12/04 15:38:16;;;;;;;;;16.50;16.50;13.90;99.90;;;;;;5062360;28;11585;-53
2021/12/04 15:41:05;;;;;;;;;14.50;14.50;13.90;99.90;;;;;;5060370;28;11553;-54
2021/12/04 15:46:31;;;;;;;;;19.00;17.75;13.90;99.90;;;;;;5065140;28;11547;-53
2021/12/04 15:54:59;;;;;;;;;15.25;15.25;13.90;99.90;;;;;;5057083;28;11571;-52
2021/12/04 15:57:30;;;;;;;;;16.25;16.25;13.90;99.90;;;;;;5062979;28;11558;-52
2021/12/04 16:00:06;;;;;;;;;20.50;20.50;13.90;99.90;;;;;;5056985;28;11568;-52
2021/12/04 16:02:42;;;;;;;;;20.75;20.75;13.90;99.90;;;;;;5070193;28;11486;-55
2021/12/04 16:05:19;;;;;;;;;16.25;13.25;13.90;99.90;;;;;;5067929;28;11558;-52
2021/12/04 16:07:59;;;;;;;;;18.50;18.50;13.90;99.90;;;;;;5061016;28;11550;-53
2021/12/04 16:10:30;;;;;;;;;14.75;14.75;13.90;99.90;;;;;;5061288;28;12373;-53
2021/12/04 16:13:01;;;;;;;;;16.50;14.75;13.90;99.90;;;;;;5059380;28;11472;-53